createdAt,value
2017-09-08T00:01:04.313Z,0
2017-09-08T00:02:12.912Z,0
2017-09-08T00:03:21.510Z,0
2017-09-08T00:04:30.109Z,0
2017-09-08T00:05:38.704Z,0
2017-09-08T00:06:47.301Z,0
2017-09-08T00:07:56.213Z,0
2017-09-08T00:09:04.812Z,0
2017-09-08T00:10:13.408Z,0
2017-09-08T00:11:22.002Z,0
2017-09-08T00:12:30.604Z,0
2017-09-08T00:13:39.200Z,0
2017-09-08T00:14:48.100Z,0
2017-09-08T00:15:56.696Z,0
2017-09-08T00:17:05.291Z,0
2017-09-08T00:18:13.888Z,0
2017-09-08T00:19:22.486Z,0
2017-09-08T00:20:31.079Z,0
2017-09-08T00:21:39.677Z,0
2017-09-08T00:22:48.272Z,0
2017-09-08T00:23:56.870Z,0
2017-09-08T00:25:05.469Z,0
2017-09-08T00:26:14.071Z,0
2017-09-08T00:27:22.670Z,0
2017-09-08T00:28:31.267Z,0
2017-09-08T00:29:39.867Z,0
2017-09-08T00:30:48.463Z,0
2017-09-08T00:31:57.066Z,0
2017-09-08T00:33:05.665Z,0
2017-09-08T00:34:14.261Z,0
2017-09-08T00:35:23.161Z,0
2017-09-08T00:36:31.759Z,0
2017-09-08T00:37:40.357Z,0
2017-09-08T00:38:48.956Z,0
2017-09-08T00:39:57.555Z,0
2017-09-08T00:41:06.150Z,0
2017-09-08T00:42:14.745Z,0
2017-09-08T00:43:23.345Z,0
2017-09-08T00:44:31.943Z,0
2017-09-08T00:45:40.845Z,0
2017-09-08T00:46:49.444Z,0
2017-09-08T00:47:58.046Z,0
2017-09-08T00:49:06.646Z,0
2017-09-08T00:50:15.249Z,0
2017-09-08T00:51:23.850Z,0
2017-09-08T00:52:32.447Z,0
2017-09-08T00:53:41.048Z,0
2017-09-08T00:54:49.644Z,0
2017-09-08T00:55:58.241Z,0
2017-09-08T00:57:06.837Z,0
2017-09-08T00:58:15.435Z,0
2017-09-08T00:59:24.032Z,0
2017-09-08T01:00:32.630Z,0
2017-09-08T01:01:41.533Z,0
2017-09-08T01:02:50.132Z,0
2017-09-08T01:03:58.729Z,0
2017-09-08T01:05:07.330Z,0
2017-09-08T01:06:16.236Z,0
2017-09-08T01:07:25.140Z,0
2017-09-08T01:08:33.740Z,0
2017-09-08T01:09:42.342Z,0
2017-09-08T01:10:50.946Z,0
2017-09-08T01:11:59.540Z,0
2017-09-08T01:13:08.138Z,0
2017-09-08T01:14:16.739Z,0
2017-09-08T01:15:25.340Z,0
2017-09-08T01:16:33.943Z,0
2017-09-08T01:17:42.578Z,0
2017-09-08T01:18:51.148Z,0
2017-09-08T01:19:59.750Z,0
2017-09-08T01:21:08.348Z,0
2017-09-08T01:22:16.945Z,0
2017-09-08T01:23:25.543Z,0
2017-09-08T01:24:34.141Z,0
2017-09-08T01:25:42.739Z,0
2017-09-08T01:26:51.340Z,0
2017-09-08T01:27:59.942Z,0
2017-09-08T01:29:08.541Z,0
2017-09-08T01:30:17.147Z,0
2017-09-08T01:31:25.748Z,0
2017-09-08T01:32:34.345Z,0
2017-09-08T01:33:42.944Z,0
2017-09-08T01:34:51.544Z,0
2017-09-08T01:36:00.155Z,0
2017-09-08T01:37:08.738Z,0
2017-09-08T01:38:17.338Z,0
2017-09-08T01:39:25.937Z,0
2017-09-08T01:40:34.535Z,0
2017-09-08T01:41:43.135Z,0
2017-09-08T01:42:51.735Z,0
2017-09-08T01:44:00.338Z,0
2017-09-08T01:45:08.935Z,0
2017-09-08T01:46:17.534Z,0
2017-09-08T01:47:26.443Z,0
2017-09-08T01:48:35.042Z,0
2017-09-08T01:49:43.642Z,0
2017-09-08T01:50:52.550Z,0
2017-09-08T01:52:01.153Z,0
2017-09-08T01:53:09.756Z,0
2017-09-08T01:54:18.355Z,0
2017-09-08T01:55:26.952Z,0
2017-09-08T01:56:35.550Z,0
2017-09-08T01:57:44.150Z,0
2017-09-08T01:58:52.749Z,0
2017-09-08T02:00:01.347Z,0
2017-09-08T02:01:10.251Z,0
2017-09-08T02:02:18.851Z,0
2017-09-08T02:03:27.453Z,0
2017-09-08T02:04:36.052Z,0
2017-09-08T02:05:44.654Z,0
2017-09-08T02:06:53.252Z,0
2017-09-08T02:08:01.850Z,0
2017-09-08T02:09:10.762Z,0
2017-09-08T02:10:19.366Z,0
2017-09-08T02:11:27.966Z,0
2017-09-08T02:12:36.565Z,0
2017-09-08T02:13:45.164Z,0
2017-09-08T02:14:53.766Z,0
2017-09-08T02:16:02.371Z,0
2017-09-08T02:17:10.971Z,0
2017-09-08T02:18:19.569Z,0
2017-09-08T02:19:28.167Z,0
2017-09-08T02:20:36.764Z,0
2017-09-08T02:21:45.668Z,0
2017-09-08T02:22:54.265Z,0
2017-09-08T02:24:02.863Z,0
2017-09-08T02:25:11.464Z,0
2017-09-08T02:26:20.067Z,0
2017-09-08T02:27:28.975Z,0
2017-09-08T02:28:37.577Z,0
2017-09-08T02:29:46.173Z,0
2017-09-08T02:30:54.770Z,0
2017-09-08T02:32:03.369Z,0
2017-09-08T02:33:11.965Z,0
2017-09-08T02:34:20.562Z,0
2017-09-08T02:35:29.161Z,0
2017-09-08T02:36:37.761Z,0
2017-09-08T02:37:46.363Z,0
2017-09-08T02:38:54.962Z,0
2017-09-08T02:40:03.563Z,0
2017-09-08T02:41:12.770Z,0
2017-09-08T02:42:21.366Z,0
2017-09-08T02:43:29.964Z,0
2017-09-08T02:44:38.562Z,0
2017-09-08T02:45:47.160Z,0
2017-09-08T02:46:55.759Z,0
2017-09-08T02:48:04.359Z,0
2017-09-08T02:49:12.957Z,0
2017-09-08T02:50:21.557Z,0
2017-09-08T02:51:30.157Z,0
2017-09-08T02:52:38.755Z,0
2017-09-08T02:53:47.355Z,0
2017-09-08T02:54:55.953Z,0
2017-09-08T02:56:04.553Z,0
2017-09-08T02:57:13.150Z,0
2017-09-08T02:58:21.749Z,0
2017-09-08T02:59:30.347Z,0
2017-09-08T03:00:38.947Z,0
2017-09-08T03:01:47.544Z,0
2017-09-08T03:02:56.145Z,0
2017-09-08T03:04:04.741Z,0
2017-09-08T03:05:13.645Z,0
2017-09-08T03:06:22.245Z,0
2017-09-08T03:07:30.842Z,0
2017-09-08T03:08:39.442Z,0
2017-09-08T03:09:48.038Z,0
2017-09-08T03:10:56.639Z,0
2017-09-08T03:12:05.238Z,0
2017-09-08T03:13:14.445Z,0
2017-09-08T03:14:23.043Z,0
2017-09-08T03:15:31.645Z,0
2017-09-08T03:16:40.242Z,0
2017-09-08T03:17:48.841Z,0
2017-09-08T03:18:57.441Z,0
2017-09-08T03:20:06.040Z,0
2017-09-08T03:21:14.638Z,0
2017-09-08T03:22:23.235Z,0
2017-09-08T03:23:31.834Z,0
2017-09-08T03:24:40.433Z,0
2017-09-08T03:25:49.031Z,0
2017-09-08T03:26:57.628Z,0
2017-09-08T03:28:06.227Z,0
2017-09-08T03:29:14.824Z,0
2017-09-08T03:30:23.433Z,0
2017-09-08T03:31:32.028Z,0
2017-09-08T03:32:40.627Z,0
2017-09-08T03:33:49.226Z,0
2017-09-08T03:34:57.824Z,0
2017-09-08T03:36:06.423Z,0
2017-09-08T03:37:15.023Z,0
2017-09-08T03:38:23.621Z,0
2017-09-08T03:39:32.221Z,0
2017-09-08T03:40:40.821Z,0
2017-09-08T03:41:49.420Z,0
2017-09-08T03:42:58.019Z,0
2017-09-08T03:44:06.617Z,0
2017-09-08T03:45:15.217Z,0
2017-09-08T03:46:23.821Z,0
2017-09-08T03:47:32.417Z,0
2017-09-08T03:48:41.015Z,0
2017-09-08T03:49:49.614Z,0
2017-09-08T03:50:58.211Z,0
2017-09-08T03:52:06.808Z,0
2017-09-08T03:53:15.409Z,0
2017-09-08T03:54:24.011Z,0
2017-09-08T03:55:32.609Z,0
2017-09-08T03:56:41.207Z,0
2017-09-08T03:57:49.807Z,0
2017-09-08T03:58:58.406Z,0
2017-09-08T04:00:07.005Z,0
2017-09-08T04:01:15.603Z,0
2017-09-08T04:02:24.202Z,0
2017-09-08T04:03:32.800Z,0
2017-09-08T04:04:41.705Z,0
2017-09-08T04:05:50.299Z,0
2017-09-08T04:06:58.898Z,0
2017-09-08T04:08:07.498Z,0
2017-09-08T04:09:16.100Z,0
2017-09-08T04:10:24.701Z,0
2017-09-08T04:11:33.299Z,0
2017-09-08T04:12:41.898Z,0
2017-09-08T04:13:50.505Z,0
2017-09-08T04:14:59.103Z,0
2017-09-08T04:16:07.701Z,0
2017-09-08T04:17:16.300Z,0
2017-09-08T04:18:24.897Z,0
2017-09-08T04:19:33.494Z,0
2017-09-08T04:20:42.094Z,0
2017-09-08T04:21:50.690Z,0
2017-09-08T04:22:59.289Z,0
2017-09-08T04:24:07.888Z,0
2017-09-08T04:25:16.485Z,0
2017-09-08T04:26:25.087Z,0
2017-09-08T04:27:33.693Z,0
2017-09-08T04:28:42.291Z,0
2017-09-08T04:29:50.892Z,0
2017-09-08T04:30:59.492Z,0
2017-09-08T04:32:08.095Z,0
2017-09-08T04:33:16.693Z,0
2017-09-08T04:34:25.292Z,0
2017-09-08T04:35:33.897Z,0
2017-09-08T04:36:42.496Z,0
2017-09-08T04:37:51.095Z,0
2017-09-08T04:38:59.694Z,0
2017-09-08T04:40:08.294Z,0
2017-09-08T04:41:16.891Z,0
2017-09-08T04:42:25.491Z,0
2017-09-08T04:43:34.089Z,0
2017-09-08T04:44:42.689Z,0
2017-09-08T04:45:51.285Z,0
2017-09-08T04:46:59.886Z,0
2017-09-08T04:48:08.485Z,0
2017-09-08T04:49:17.086Z,0
2017-09-08T04:50:25.687Z,0
2017-09-08T04:51:34.290Z,0
2017-09-08T04:52:42.890Z,0
2017-09-08T04:53:51.491Z,0
2017-09-08T04:55:00.090Z,0
2017-09-08T04:56:08.706Z,0
2017-09-08T04:57:17.305Z,0
2017-09-08T04:58:25.908Z,0
2017-09-08T04:59:34.510Z,0
2017-09-08T05:00:43.109Z,0
2017-09-08T05:01:51.707Z,0
2017-09-08T05:03:00.311Z,0
2017-09-08T05:04:08.913Z,0
2017-09-08T05:05:17.512Z,0
2017-09-08T05:06:26.112Z,0
2017-09-08T05:07:34.711Z,0
2017-09-08T05:08:43.311Z,0
2017-09-08T05:09:51.909Z,0
2017-09-08T05:11:00.513Z,0
2017-09-08T05:12:09.113Z,0
2017-09-08T05:13:17.713Z,0
2017-09-08T05:14:26.313Z,0
2017-09-08T05:15:34.914Z,0
2017-09-08T05:16:43.516Z,0
2017-09-08T05:17:52.111Z,0
2017-09-08T05:19:01.010Z,0
2017-09-08T05:20:09.609Z,0
2017-09-08T05:21:18.210Z,0
2017-09-08T05:22:26.808Z,0
2017-09-08T05:23:35.410Z,0
2017-09-08T05:24:44.011Z,0
2017-09-08T05:25:52.616Z,0
2017-09-08T05:27:01.215Z,0
2017-09-08T05:28:09.815Z,0
2017-09-08T05:29:18.417Z,0
2017-09-08T05:30:27.017Z,0
2017-09-08T05:31:35.617Z,0
2017-09-08T05:32:44.221Z,0
2017-09-08T05:33:52.822Z,0
2017-09-08T05:35:01.423Z,0
2017-09-08T05:36:10.021Z,0
2017-09-08T05:37:18.622Z,0
2017-09-08T05:38:27.524Z,0
2017-09-08T05:39:36.123Z,0
2017-09-08T05:40:44.721Z,0
2017-09-08T05:41:53.321Z,0
2017-09-08T05:43:01.922Z,0
2017-09-08T05:44:10.520Z,0
2017-09-08T05:45:19.119Z,0
2017-09-08T05:46:27.719Z,0
2017-09-08T05:47:36.324Z,0
2017-09-08T05:48:44.919Z,0
2017-09-08T05:49:53.518Z,0
2017-09-08T05:51:02.118Z,5
2017-09-08T05:52:10.720Z,5
2017-09-08T05:53:19.318Z,5
2017-09-08T05:54:27.920Z,5
2017-09-08T05:55:36.521Z,5
2017-09-08T05:56:45.122Z,5
2017-09-08T05:57:53.722Z,5
2017-09-08T05:59:02.322Z,5
2017-09-08T06:00:10.925Z,5
2017-09-08T06:01:19.524Z,5
2017-09-08T06:02:28.431Z,10
2017-09-08T06:03:37.031Z,10
2017-09-08T06:04:45.631Z,10
2017-09-08T06:05:54.231Z,10
2017-09-08T06:07:02.831Z,5
2017-09-08T06:08:11.430Z,5
2017-09-08T06:09:20.026Z,5
2017-09-08T06:10:28.624Z,5
2017-09-08T06:11:37.223Z,5
2017-09-08T06:12:45.819Z,5
2017-09-08T06:13:54.416Z,5
2017-09-08T06:15:03.016Z,5
2017-09-08T06:16:11.615Z,5
2017-09-08T06:17:20.217Z,5
2017-09-08T06:18:28.817Z,5
2017-09-08T06:19:37.413Z,5
2017-09-08T06:20:46.009Z,5
2017-09-08T06:21:54.609Z,5
2017-09-08T06:23:03.204Z,5
2017-09-08T06:24:11.801Z,5
2017-09-08T06:25:20.401Z,5
2017-09-08T06:26:28.999Z,5
2017-09-08T06:27:37.598Z,5
2017-09-08T06:28:46.195Z,5
2017-09-08T06:29:54.794Z,5
2017-09-08T06:31:03.393Z,5
2017-09-08T06:32:11.992Z,5
2017-09-08T06:33:20.591Z,5
2017-09-08T06:34:29.192Z,5
2017-09-08T06:35:37.788Z,5
2017-09-08T06:36:46.388Z,5
2017-09-08T06:37:55.291Z,10
2017-09-08T06:39:03.894Z,10
2017-09-08T06:40:12.494Z,10
2017-09-08T06:41:21.091Z,10
2017-09-08T06:42:29.689Z,10
2017-09-08T06:43:38.324Z,10
2017-09-08T06:44:46.955Z,10
2017-09-08T06:45:55.585Z,10
2017-09-08T06:47:04.185Z,10
2017-09-08T06:48:12.783Z,5
2017-09-08T06:49:21.384Z,10
2017-09-08T06:50:29.984Z,5
2017-09-08T06:51:38.577Z,5
2017-09-08T06:52:47.176Z,10
2017-09-08T06:53:55.776Z,10
2017-09-08T06:55:04.377Z,10
2017-09-08T06:56:12.977Z,5
2017-09-08T06:57:21.575Z,5
2017-09-08T06:58:30.173Z,5
2017-09-08T06:59:38.770Z,5
2017-09-08T07:00:47.371Z,5
2017-09-08T07:01:55.969Z,5
2017-09-08T07:03:04.572Z,5
2017-09-08T07:04:13.171Z,5
2017-09-08T07:05:21.767Z,5
2017-09-08T07:06:30.368Z,5
2017-09-08T07:07:38.971Z,5
2017-09-08T07:08:47.566Z,0
2017-09-08T07:09:56.168Z,0
2017-09-08T07:11:04.823Z,0
2017-09-08T07:12:13.608Z,5
2017-09-08T07:13:22.209Z,5
2017-09-08T07:14:30.808Z,5
2017-09-08T07:15:39.405Z,5
2017-09-08T07:16:48.005Z,5
2017-09-08T07:17:56.602Z,5
2017-09-08T07:19:05.204Z,5
2017-09-08T07:20:13.802Z,10
2017-09-08T07:21:22.401Z,10
2017-09-08T07:22:31.000Z,10
2017-09-08T07:23:39.601Z,10
2017-09-08T07:24:48.201Z,10
2017-09-08T07:25:56.800Z,10
2017-09-08T07:27:05.404Z,15
2017-09-08T07:28:14.004Z,15
2017-09-08T07:29:22.606Z,10
2017-09-08T07:30:31.207Z,10
2017-09-08T07:31:39.816Z,10
2017-09-08T07:32:48.417Z,10
2017-09-08T07:33:57.323Z,10
2017-09-08T07:35:05.967Z,10
2017-09-08T07:36:14.569Z,10
2017-09-08T07:37:23.283Z,10
2017-09-08T07:38:31.854Z,5
2017-09-08T07:39:40.458Z,5
2017-09-08T07:40:49.058Z,5
2017-09-08T07:41:57.701Z,10
2017-09-08T07:43:06.297Z,10
2017-09-08T07:44:14.909Z,5
2017-09-08T07:45:23.525Z,10
2017-09-08T07:46:32.126Z,10
2017-09-08T07:47:40.727Z,10
2017-09-08T07:48:49.327Z,15
2017-09-08T07:49:57.926Z,20
2017-09-08T07:51:06.525Z,25
2017-09-08T07:52:15.127Z,40
2017-09-08T07:53:23.725Z,50
2017-09-08T07:54:32.326Z,50
2017-09-08T07:55:40.925Z,55
2017-09-08T07:56:49.525Z,50
2017-09-08T07:57:58.126Z,45
2017-09-08T07:59:06.725Z,40
2017-09-08T08:00:15.325Z,35
2017-09-08T08:01:23.923Z,40
2017-09-08T08:02:32.638Z,45
2017-09-08T08:03:41.237Z,50
2017-09-08T08:04:49.936Z,45
2017-09-08T08:05:58.537Z,40
2017-09-08T08:07:07.137Z,35
2017-09-08T08:08:16.078Z,35
2017-09-08T08:09:24.690Z,35
2017-09-08T08:10:33.345Z,35
2017-09-08T08:11:41.979Z,35
2017-09-08T08:12:50.634Z,30
2017-09-08T08:13:59.237Z,30
2017-09-08T08:15:07.838Z,30
2017-09-08T08:16:16.437Z,30
2017-09-08T08:17:25.037Z,30
2017-09-08T08:18:33.635Z,30
2017-09-08T08:19:42.238Z,30
2017-09-08T08:20:50.842Z,30
2017-09-08T08:21:59.447Z,30
2017-09-08T08:23:08.040Z,30
2017-09-08T08:24:16.638Z,30
2017-09-08T08:25:25.239Z,30
2017-09-08T08:26:33.850Z,25
2017-09-08T08:27:42.454Z,25
2017-09-08T08:28:51.054Z,25
2017-09-08T08:29:59.655Z,25
2017-09-08T08:31:08.256Z,25
2017-09-08T08:32:16.858Z,25
2017-09-08T08:33:25.459Z,30
2017-09-08T08:34:34.109Z,30
2017-09-08T08:35:42.707Z,30
2017-09-08T08:36:51.618Z,30
2017-09-08T08:38:00.218Z,30
2017-09-08T08:39:09.120Z,30
2017-09-08T08:40:17.718Z,25
2017-09-08T08:41:26.624Z,20
2017-09-08T08:42:35.223Z,20
2017-09-08T08:43:43.825Z,20
2017-09-08T08:44:52.732Z,20
2017-09-08T08:46:01.332Z,20
2017-09-08T08:47:09.941Z,25
2017-09-08T08:48:18.543Z,25
2017-09-08T08:49:27.141Z,20
2017-09-08T08:50:35.740Z,20
2017-09-08T08:51:44.337Z,25
2017-09-08T08:52:52.936Z,25
2017-09-08T08:54:01.536Z,25
2017-09-08T08:55:10.144Z,30
2017-09-08T08:56:18.742Z,30
2017-09-08T08:57:27.340Z,30
2017-09-08T08:58:35.941Z,35
2017-09-08T08:59:44.542Z,35
2017-09-08T09:00:53.142Z,35
2017-09-08T09:02:01.756Z,30
2017-09-08T09:03:10.371Z,30
2017-09-08T09:04:18.974Z,30
2017-09-08T09:05:27.571Z,30
2017-09-08T09:06:36.172Z,30
2017-09-08T09:07:44.770Z,30
2017-09-08T09:08:53.370Z,30
2017-09-08T09:10:01.972Z,30
2017-09-08T09:11:10.571Z,30
2017-09-08T09:12:19.169Z,30
2017-09-08T09:13:27.858Z,35
2017-09-08T09:14:36.488Z,35
2017-09-08T09:15:45.086Z,30
2017-09-08T09:16:53.687Z,35
2017-09-08T09:18:02.287Z,35
2017-09-08T09:19:10.898Z,35
2017-09-08T09:20:19.501Z,40
2017-09-08T09:21:28.104Z,40
2017-09-08T09:22:37.011Z,45
2017-09-08T09:23:45.613Z,45
2017-09-08T09:24:54.212Z,45
2017-09-08T09:26:03.119Z,45
2017-09-08T09:27:11.721Z,45
2017-09-08T09:28:20.625Z,50
2017-09-08T09:29:29.241Z,50
2017-09-08T09:30:37.837Z,50
2017-09-08T09:31:46.766Z,50
2017-09-08T09:32:55.364Z,50
2017-09-08T09:34:03.965Z,50
2017-09-08T09:35:12.567Z,50
2017-09-08T09:36:21.167Z,50
2017-09-08T09:37:29.772Z,45
2017-09-08T09:38:38.373Z,40
2017-09-08T09:39:46.971Z,40
2017-09-08T09:40:55.576Z,35
2017-09-08T09:42:04.174Z,30
2017-09-08T09:43:12.774Z,25
2017-09-08T09:44:21.371Z,25
2017-09-08T09:45:29.972Z,25
2017-09-08T09:46:38.574Z,30
2017-09-08T09:47:47.177Z,35
2017-09-08T09:48:55.777Z,35
2017-09-08T09:50:04.686Z,40
2017-09-08T09:51:13.283Z,40
2017-09-08T09:52:21.884Z,45
2017-09-08T09:53:30.485Z,50
2017-09-08T09:54:39.085Z,50
2017-09-08T09:55:47.682Z,55
2017-09-08T09:56:56.281Z,50
2017-09-08T09:58:04.878Z,50
2017-09-08T09:59:13.477Z,50
2017-09-08T10:00:22.077Z,50
2017-09-08T10:01:30.675Z,45
2017-09-08T10:02:39.276Z,45
2017-09-08T10:03:47.875Z,45
2017-09-08T10:04:56.474Z,45
2017-09-08T10:06:05.072Z,45
2017-09-08T10:07:13.675Z,45
2017-09-08T10:08:22.276Z,45
2017-09-08T10:09:30.879Z,40
2017-09-08T10:10:39.481Z,35
2017-09-08T10:11:48.081Z,35
2017-09-08T10:12:56.681Z,30
2017-09-08T10:14:05.284Z,30
2017-09-08T10:15:13.885Z,25
2017-09-08T10:16:22.488Z,25
2017-09-08T10:17:31.091Z,25
2017-09-08T10:18:39.997Z,30
2017-09-08T10:19:48.598Z,35
2017-09-08T10:20:57.198Z,35
2017-09-08T10:22:05.796Z,30
2017-09-08T10:23:14.399Z,30
2017-09-08T10:24:23.001Z,30
2017-09-08T10:25:31.906Z,35
2017-09-08T10:26:40.506Z,40
2017-09-08T10:27:49.107Z,40
2017-09-08T10:28:57.709Z,40
2017-09-08T10:30:06.308Z,35
2017-09-08T10:31:14.907Z,30
2017-09-08T10:32:23.816Z,25
2017-09-08T10:33:32.415Z,30
2017-09-08T10:34:41.017Z,30
2017-09-08T10:35:49.621Z,40
2017-09-08T10:36:58.220Z,40
2017-09-08T10:38:07.128Z,30
2017-09-08T10:39:15.727Z,30
2017-09-08T10:40:24.326Z,30
2017-09-08T10:41:32.925Z,30
2017-09-08T10:42:41.844Z,35
2017-09-08T10:43:50.446Z,30
2017-09-08T10:44:59.051Z,30
2017-09-08T10:46:07.650Z,30
2017-09-08T10:47:16.249Z,25
2017-09-08T10:48:24.849Z,25
2017-09-08T10:49:33.449Z,25
2017-09-08T10:50:42.051Z,30
2017-09-08T10:51:50.654Z,30
2017-09-08T10:52:59.256Z,30
2017-09-08T10:54:07.856Z,30
2017-09-08T10:55:16.457Z,30
2017-09-08T10:56:25.061Z,35
2017-09-08T10:57:33.661Z,30
2017-09-08T10:58:42.269Z,30
2017-09-08T10:59:50.864Z,30
2017-09-08T11:00:59.468Z,30
2017-09-08T11:02:08.069Z,30
2017-09-08T11:03:16.670Z,30
2017-09-08T11:04:25.272Z,30
2017-09-08T11:05:33.871Z,30
2017-09-08T11:06:42.472Z,30
2017-09-08T11:07:51.071Z,25
2017-09-08T11:08:59.677Z,25
2017-09-08T11:10:08.283Z,30
2017-09-08T11:11:16.876Z,25
2017-09-08T11:12:25.477Z,25
2017-09-08T11:13:34.079Z,25
2017-09-08T11:14:42.680Z,20
2017-09-08T11:15:51.277Z,20
2017-09-08T11:16:59.879Z,20
2017-09-08T11:18:08.783Z,20
2017-09-08T11:19:17.385Z,20
2017-09-08T11:20:25.986Z,20
2017-09-08T11:21:34.586Z,15
2017-09-08T11:22:43.185Z,15
2017-09-08T11:23:51.785Z,15
2017-09-08T11:25:00.386Z,15
2017-09-08T11:26:08.984Z,15
2017-09-08T11:27:17.581Z,15
2017-09-08T11:28:26.178Z,15
2017-09-08T11:29:34.775Z,15
2017-09-08T17:36:45.997Z,0
2017-09-08T17:37:55.012Z,0
2017-09-08T17:39:04.347Z,0
2017-09-08T17:40:13.366Z,0
2017-09-08T17:41:22.386Z,0
2017-09-08T17:42:31.083Z,0
2017-09-08T17:43:40.171Z,0
2017-09-08T17:44:51.022Z,0
2017-09-08T17:46:01.693Z,0
2017-09-08T17:47:11.400Z,0
2017-09-08T17:48:20.771Z,0
2017-09-08T17:49:30.422Z,0
2017-09-08T17:50:40.455Z,0
2017-09-08T17:51:49.586Z,0
2017-09-08T17:52:59.168Z,0
2017-09-08T17:54:08.895Z,0
2017-09-08T17:55:18.552Z,0
2017-09-08T17:56:28.214Z,0
2017-09-08T17:57:37.231Z,0
2017-09-08T17:58:46.246Z,0
2017-09-08T17:59:54.944Z,0
2017-09-08T18:01:04.282Z,0
2017-09-08T18:02:13.940Z,0
2017-09-08T18:03:22.636Z,0
2017-09-08T18:04:31.654Z,0
2017-09-08T18:05:41.060Z,0
2017-09-08T18:06:49.826Z,0
2017-09-08T18:07:59.557Z,0
2017-09-08T18:09:08.578Z,0
2017-09-08T18:10:17.273Z,0
2017-09-08T18:11:25.972Z,0
2017-09-08T18:12:35.308Z,0
2017-09-08T18:13:44.648Z,0
2017-09-08T18:14:53.668Z,0
2017-09-08T18:16:02.682Z,0
2017-09-08T18:17:12.340Z,0
2017-09-08T18:18:22.308Z,0
2017-09-08T18:19:31.961Z,0
2017-09-08T18:20:40.983Z,0
2017-09-08T18:21:50.636Z,0
2017-09-08T18:22:59.650Z,0
2017-09-08T18:24:08.670Z,0
2017-09-08T18:25:17.688Z,0
2017-09-08T18:26:26.380Z,0
2017-09-08T18:27:35.395Z,0
2017-09-08T18:28:44.412Z,0
2017-09-08T18:29:53.108Z,0
2017-09-08T18:31:02.126Z,0
2017-09-08T18:32:11.149Z,0
2017-09-08T18:33:20.168Z,0
2017-09-08T18:34:29.184Z,0
2017-09-08T18:35:38.521Z,0
2017-09-08T18:36:47.541Z,0
2017-09-08T18:37:56.238Z,0
2017-09-08T18:39:05.575Z,0
2017-09-08T18:40:14.593Z,0
2017-09-08T18:41:23.609Z,0
2017-09-08T18:42:32.314Z,0
2017-09-08T18:43:41.974Z,0
2017-09-08T18:44:51.308Z,0
2017-09-08T18:46:00.973Z,0
2017-09-08T18:47:09.988Z,0
2017-09-08T18:48:19.645Z,0
2017-09-08T18:49:29.299Z,0
2017-09-08T18:50:38.633Z,0
2017-09-08T18:51:47.977Z,0
2017-09-08T18:52:57.631Z,0
2017-09-08T18:54:06.645Z,0
2017-09-08T18:55:15.990Z,0
2017-09-08T18:56:25.008Z,0
2017-09-08T18:57:34.025Z,0
2017-09-08T18:58:43.040Z,0
2017-09-08T18:59:52.693Z,0
2017-09-08T19:01:01.708Z,0
2017-09-08T19:02:11.044Z,0
2017-09-08T19:03:20.066Z,0
2017-09-08T19:04:29.722Z,0
2017-09-08T19:05:38.417Z,0
2017-09-08T19:06:47.435Z,0
2017-09-08T19:07:56.774Z,0
2017-09-08T19:09:05.794Z,0
2017-09-08T19:10:15.770Z,0
2017-09-08T19:11:24.786Z,0
2017-09-08T19:12:34.127Z,0
2017-09-08T19:13:42.824Z,0
2017-09-08T19:14:51.521Z,0
2017-09-08T19:16:00.537Z,0
2017-09-08T19:17:09.553Z,0
2017-09-08T19:18:18.889Z,0
2017-09-08T19:19:27.905Z,0
2017-09-08T19:20:36.921Z,0
2017-09-08T19:21:46.255Z,0
2017-09-08T19:22:54.956Z,0
2017-09-08T19:24:04.292Z,0
2017-09-08T19:25:13.309Z,0
2017-09-08T19:26:22.652Z,0
2017-09-08T19:27:31.986Z,0
2017-09-08T19:28:40.998Z,0
2017-09-08T19:29:50.335Z,0
2017-09-08T19:30:59.355Z,0
2017-09-08T19:32:08.716Z,0
2017-09-08T19:33:18.052Z,0
2017-09-08T19:34:27.392Z,0
2017-09-08T19:35:36.405Z,0
2017-09-08T19:36:45.745Z,0
2017-09-08T19:37:55.084Z,0
2017-09-08T19:39:04.101Z,0
2017-09-08T19:40:13.115Z,0
2017-09-08T19:41:22.132Z,0
2017-09-08T19:42:31.469Z,0
2017-09-08T19:43:41.445Z,0
2017-09-08T19:44:50.459Z,0
2017-09-08T19:45:59.157Z,0
2017-09-08T19:47:08.171Z,0
2017-09-08T19:48:17.510Z,0
2017-09-08T19:49:26.844Z,0
2017-09-08T19:50:36.185Z,0
2017-09-08T19:51:45.521Z,0
2017-09-08T19:52:54.863Z,0
2017-09-08T19:54:03.560Z,0
2017-09-08T19:55:12.576Z,0
2017-09-08T19:56:22.234Z,0
2017-09-08T19:57:31.250Z,0
2017-09-08T19:58:40.265Z,0
2017-09-08T19:59:49.281Z,0
2017-09-08T20:00:58.301Z,0
2017-09-08T20:02:07.314Z,0
2017-09-08T20:03:16.648Z,0
2017-09-08T20:04:25.344Z,0
2017-09-08T20:05:34.361Z,0
2017-09-08T20:06:44.015Z,0
2017-09-08T20:07:53.668Z,0
2017-09-08T20:09:02.682Z,0
2017-09-08T20:10:11.379Z,0
2017-09-08T20:11:20.398Z,0
2017-09-08T20:12:29.736Z,0
2017-09-08T20:13:38.751Z,0
2017-09-08T20:14:47.445Z,0
2017-09-08T20:15:56.142Z,0
2017-09-08T20:17:05.475Z,0
2017-09-08T20:18:14.808Z,0
2017-09-08T20:19:23.504Z,0
2017-09-08T20:20:32.521Z,0
2017-09-08T20:21:41.542Z,0
2017-09-08T20:22:50.238Z,0
2017-09-08T20:23:59.258Z,0
2017-09-08T20:25:08.594Z,0
2017-09-08T20:26:17.930Z,0
2017-09-08T20:27:26.950Z,0
2017-09-08T20:28:36.284Z,0
2017-09-08T20:29:44.979Z,0
2017-09-08T20:30:53.676Z,0
2017-09-08T20:32:02.408Z,0
2017-09-08T20:33:11.426Z,0
2017-09-08T20:34:21.402Z,0
2017-09-08T20:35:30.102Z,0
2017-09-08T20:36:39.120Z,0
2017-09-08T20:37:48.772Z,0
2017-09-08T20:38:57.788Z,0
2017-09-08T20:40:07.121Z,0
2017-09-08T20:41:15.818Z,0
2017-09-08T20:42:24.836Z,0
2017-09-08T20:43:34.489Z,0
2017-09-08T20:44:43.506Z,0
2017-09-08T20:45:52.524Z,0
2017-09-08T20:47:01.540Z,0
2017-09-08T20:48:10.880Z,0
2017-09-08T20:49:19.576Z,0
2017-09-08T20:50:28.591Z,0
2017-09-08T20:51:37.609Z,0
2017-09-08T20:52:46.944Z,0
2017-09-08T20:53:55.639Z,0
2017-09-08T20:55:05.294Z,0
2017-09-08T20:56:14.954Z,0
2017-09-08T20:57:23.972Z,0
2017-09-08T20:58:33.625Z,0
2017-09-08T20:59:42.320Z,0
2017-09-08T21:00:51.340Z,0
2017-09-08T21:02:00.355Z,0
2017-09-08T21:03:09.689Z,0
2017-09-08T21:04:18.706Z,0
2017-09-08T21:05:27.400Z,0
2017-09-08T21:06:36.417Z,0
2017-09-08T21:07:45.434Z,0
2017-09-08T21:08:54.770Z,0
2017-09-08T21:10:03.788Z,0
2017-09-08T21:11:13.446Z,0
2017-09-08T21:12:22.460Z,0
2017-09-08T21:13:31.481Z,0
2017-09-08T21:14:41.137Z,0
2017-09-08T21:15:50.470Z,0
2017-09-08T21:16:59.487Z,0
2017-09-08T21:18:08.831Z,0
2017-09-08T21:19:18.167Z,0
2017-09-08T21:20:26.863Z,0
2017-09-08T21:21:35.875Z,0
2017-09-08T21:22:45.213Z,0
2017-09-08T21:23:53.906Z,0
2017-09-08T21:25:02.922Z,0
2017-09-08T21:26:11.939Z,0
2017-09-08T21:27:21.278Z,0
2017-09-08T21:28:29.974Z,0
2017-09-08T21:29:38.993Z,0
2017-09-08T21:30:48.327Z,0
2017-09-08T21:31:57.342Z,0
2017-09-08T21:33:06.038Z,0
2017-09-08T21:34:15.374Z,0
2017-09-08T21:35:24.068Z,0
2017-09-08T21:36:32.765Z,0
2017-09-08T21:37:41.780Z,0
2017-09-08T21:38:50.798Z,0
2017-09-08T21:40:00.141Z,0
2017-09-08T21:41:09.157Z,0
2017-09-08T21:42:17.852Z,0
2017-09-08T21:43:26.905Z,0
2017-09-08T21:44:35.921Z,0
2017-09-08T21:45:45.259Z,0
2017-09-08T21:46:54.275Z,0
2017-09-08T21:48:03.005Z,0
2017-09-08T21:49:11.664Z,0
2017-09-08T21:50:20.689Z,0
2017-09-08T21:51:30.345Z,0
2017-09-08T21:52:39.681Z,0
2017-09-08T21:53:49.017Z,0
2017-09-08T21:54:58.350Z,0
2017-09-08T21:56:07.366Z,0
2017-09-08T21:57:16.062Z,0
2017-09-08T21:58:25.399Z,0
2017-09-08T21:59:34.095Z,0
2017-09-08T22:00:43.431Z,0
2017-09-08T22:01:52.126Z,0
2017-09-08T22:03:00.823Z,0
2017-09-08T22:04:09.843Z,0
2017-09-08T22:05:19.181Z,0
2017-09-08T22:06:27.878Z,0
2017-09-08T22:07:36.895Z,0
2017-09-08T22:08:45.590Z,0
2017-09-08T22:09:55.242Z,0
2017-09-08T22:11:04.578Z,0
2017-09-08T22:12:13.914Z,0
2017-09-08T22:13:22.932Z,0
2017-09-08T22:14:32.290Z,0
2017-09-08T22:15:41.766Z,0
2017-09-08T22:16:50.461Z,0
2017-09-08T22:17:59.477Z,0
2017-09-08T22:19:08.171Z,0
2017-09-08T22:20:17.508Z,0
2017-09-08T22:21:26.844Z,0
2017-09-08T22:22:35.862Z,0
2017-09-08T22:23:44.876Z,0
2017-09-08T22:24:54.532Z,0
2017-09-08T22:26:03.548Z,0
2017-09-08T22:27:12.565Z,0
2017-09-08T22:28:21.578Z,0
2017-09-08T22:29:30.916Z,0
2017-09-08T22:30:39.612Z,0
2017-09-08T22:31:48.630Z,0
2017-09-08T22:32:57.326Z,0
2017-09-08T22:34:06.661Z,0
2017-09-08T22:35:16.000Z,0
2017-09-08T22:36:25.336Z,0
2017-09-08T22:37:34.350Z,0
2017-09-08T22:38:43.048Z,0
2017-09-08T22:39:52.382Z,0
2017-09-08T22:41:01.396Z,0
2017-09-08T22:42:10.412Z,0
2017-09-08T22:43:20.064Z,0
2017-09-08T22:44:29.400Z,0
2017-09-08T22:45:38.733Z,0
2017-09-08T22:46:47.749Z,0
2017-09-08T22:47:56.449Z,0
2017-09-08T22:49:05.467Z,0
2017-09-08T22:50:14.807Z,0
2017-09-08T22:51:24.145Z,0
2017-09-08T22:52:33.161Z,0
2017-09-08T22:53:42.180Z,0